sensor_id;sensor_type;location;lat;lon;timestamp;P1;durP1;ratioP1;P2;durP2;ratioP2
17662;SDS011;8950;56.892;15.090;2022-09-13T00:01:21;5.50;;;5.00;;
17662;SDS011;8950;56.892;15.090;2022-09-13T00:03:47;5.55;;;5.15;;
17662;SDS011;8950;56.892;15.090;2022-09-13T00:06:14;4.97;;;4.57;;
17662;SDS011;8950;56.892;15.090;2022-09-13T00:08:41;5.43;;;5.03;;
17662;SDS011;8950;56.892;15.090;2022-09-13T00:11:12;4.95;;;4.57;;
17662;SDS011;8950;56.892;15.090;2022-09-13T00:13:39;4.90;;;4.40;;
17662;SDS011;8950;56.892;15.090;2022-09-13T00:16:08;5.30;;;4.90;;
17662;SDS011;8950;56.892;15.090;2022-09-13T00:18:37;5.13;;;4.68;;
17662;SDS011;8950;56.892;15.090;2022-09-13T00:21:04;4.97;;;4.55;;
17662;SDS011;8950;56.892;15.090;2022-09-13T00:23:31;4.93;;;4.38;;
17662;SDS011;8950;56.892;15.090;2022-09-13T00:26:02;5.07;;;4.68;;
17662;SDS011;8950;56.892;15.090;2022-09-13T00:28:28;4.80;;;4.40;;
17662;SDS011;8950;56.892;15.090;2022-09-13T00:30:57;4.47;;;4.13;;
17662;SDS011;8950;56.892;15.090;2022-09-13T00:33:24;4.70;;;4.30;;
17662;SDS011;8950;56.892;15.090;2022-09-13T00:35:52;4.40;;;4.05;;
17662;SDS011;8950;56.892;15.090;2022-09-13T00:38:18;4.10;;;3.80;;
17662;SDS011;8950;56.892;15.090;2022-09-13T00:40:44;3.88;;;3.58;;
17662;SDS011;8950;56.892;15.090;2022-09-13T00:43:11;4.63;;;4.22;;
17662;SDS011;8950;56.892;15.090;2022-09-13T00:45:41;4.90;;;4.40;;
17662;SDS011;8950;56.892;15.090;2022-09-13T00:48:07;3.97;;;3.65;;
17662;SDS011;8950;56.892;15.090;2022-09-13T00:50:36;3.67;;;3.38;;
17662;SDS011;8950;56.892;15.090;2022-09-13T00:53:06;4.47;;;4.03;;
17662;SDS011;8950;56.892;15.090;2022-09-13T00:55:34;3.72;;;3.42;;
17662;SDS011;8950;56.892;15.090;2022-09-13T00:58:04;4.35;;;3.80;;
17662;SDS011;8950;56.892;15.090;2022-09-13T01:00:31;4.10;;;3.80;;
17662;SDS011;8950;56.892;15.090;2022-09-13T01:02:59;4.00;;;3.60;;
17662;SDS011;8950;56.892;15.090;2022-09-13T01:05:28;3.92;;;3.63;;
17662;SDS011;8950;56.892;15.090;2022-09-13T01:07:56;4.18;;;3.85;;
17662;SDS011;8950;56.892;15.090;2022-09-13T01:10:25;4.40;;;4.00;;
17662;SDS011;8950;56.892;15.090;2022-09-13T01:12:53;4.00;;;3.70;;
17662;SDS011;8950;56.892;15.090;2022-09-13T01:15:20;3.95;;;3.63;;
17662;SDS011;8950;56.892;15.090;2022-09-13T01:17:46;5.30;;;3.92;;
17662;SDS011;8950;56.892;15.090;2022-09-13T01:20:13;3.90;;;3.58;;
17662;SDS011;8950;56.892;15.090;2022-09-13T01:22:54;4.00;;;3.70;;
17662;SDS011;8950;56.892;15.090;2022-09-13T01:28:19;4.00;;;3.70;;
17662;SDS011;8950;56.892;15.090;2022-09-13T01:30:53;4.68;;;3.90;;
17662;SDS011;8950;56.892;15.090;2022-09-13T01:33:25;3.80;;;3.50;;
17662;SDS011;8950;56.892;15.090;2022-09-13T01:36:01;3.60;;;3.30;;
17662;SDS011;8950;56.892;15.090;2022-09-13T01:38:37;3.53;;;3.22;;
17662;SDS011;8950;56.892;15.090;2022-09-13T01:41:07;3.63;;;3.33;;
17662;SDS011;8950;56.892;15.090;2022-09-13T01:43:39;3.90;;;3.50;;
17662;SDS011;8950;56.892;15.090;2022-09-13T01:46:09;3.63;;;3.42;;
17662;SDS011;8950;56.892;15.090;2022-09-13T01:48:43;3.83;;;3.53;;
17662;SDS011;8950;56.892;15.090;2022-09-13T01:51:11;3.47;;;3.28;;
17662;SDS011;8950;56.892;15.090;2022-09-13T01:53:43;5.65;;;3.80;;
17662;SDS011;8950;56.892;15.090;2022-09-13T01:56:15;3.83;;;3.53;;
17662;SDS011;8950;56.892;15.090;2022-09-13T01:58:44;3.88;;;3.58;;
17662;SDS011;8950;56.892;15.090;2022-09-13T02:01:15;4.05;;;3.67;;
17662;SDS011;8950;56.892;15.090;2022-09-13T02:03:44;4.50;;;3.10;;
17662;SDS011;8950;56.892;15.090;2022-09-13T02:06:12;3.80;;;3.50;;
17662;SDS011;8950;56.892;15.090;2022-09-13T02:08:41;3.63;;;3.38;;
17662;SDS011;8950;56.892;15.090;2022-09-13T02:11:10;4.40;;;3.95;;
17662;SDS011;8950;56.892;15.090;2022-09-13T02:13:38;3.88;;;3.58;;
17662;SDS011;8950;56.892;15.090;2022-09-13T02:16:06;3.70;;;3.40;;
17662;SDS011;8950;56.892;15.090;2022-09-13T02:18:36;3.92;;;3.63;;
17662;SDS011;8950;56.892;15.090;2022-09-13T02:21:05;3.90;;;3.60;;
17662;SDS011;8950;56.892;15.090;2022-09-13T02:23:34;4.30;;;3.90;;
17662;SDS011;8950;56.892;15.090;2022-09-13T02:26:02;3.65;;;3.35;;
17662;SDS011;8950;56.892;15.090;2022-09-13T02:28:32;4.57;;;3.60;;
17662;SDS011;8950;56.892;15.090;2022-09-13T02:31:00;3.70;;;3.40;;
17662;SDS011;8950;56.892;15.090;2022-09-13T02:33:28;3.40;;;3.20;;
17662;SDS011;8950;56.892;15.090;2022-09-13T02:35:59;4.78;;;3.28;;
17662;SDS011;8950;56.892;15.090;2022-09-13T02:38:27;3.45;;;3.15;;
17662;SDS011;8950;56.892;15.090;2022-09-13T02:40:57;3.72;;;3.42;;
17662;SDS011;8950;56.892;15.090;2022-09-13T02:43:26;3.75;;;3.47;;
17662;SDS011;8950;56.892;15.090;2022-09-13T02:45:55;3.67;;;3.45;;
17662;SDS011;8950;56.892;15.090;2022-09-13T02:48:25;5.72;;;3.70;;
17662;SDS011;8950;56.892;15.090;2022-09-13T02:50:56;3.22;;;3.03;;
17662;SDS011;8950;56.892;15.090;2022-09-13T02:53:26;3.67;;;3.38;;
17662;SDS011;8950;56.892;15.090;2022-09-13T02:55:59;3.55;;;3.10;;
17662;SDS011;8950;56.892;15.090;2022-09-13T02:58:31;3.83;;;3.53;;
17662;SDS011;8950;56.892;15.090;2022-09-13T03:00:59;4.05;;;3.60;;
17662;SDS011;8950;56.892;15.090;2022-09-13T03:03:26;3.47;;;3.28;;
17662;SDS011;8950;56.892;15.090;2022-09-13T03:05:52;3.53;;;3.28;;
17662;SDS011;8950;56.892;15.090;2022-09-13T03:08:19;3.72;;;3.42;;
17662;SDS011;8950;56.892;15.090;2022-09-13T03:10:50;3.78;;;3.42;;
17662;SDS011;8950;56.892;15.090;2022-09-13T03:13:28;4.10;;;3.80;;
17662;SDS011;8950;56.892;15.090;2022-09-13T03:15:59;4.20;;;3.80;;
17662;SDS011;8950;56.892;15.090;2022-09-13T03:18:33;3.67;;;3.38;;
17662;SDS011;8950;56.892;15.090;2022-09-13T03:21:05;4.43;;;3.75;;
17662;SDS011;8950;56.892;15.090;2022-09-13T03:23:35;3.58;;;3.28;;
17662;SDS011;8950;56.892;15.090;2022-09-13T03:26:09;3.85;;;3.55;;
17662;SDS011;8950;56.892;15.090;2022-09-13T03:28:40;4.15;;;3.30;;
17662;SDS011;8950;56.892;15.090;2022-09-13T03:31:11;3.30;;;3.00;;
17662;SDS011;8950;56.892;15.090;2022-09-13T03:33:41;3.67;;;3.30;;
17662;SDS011;8950;56.892;15.090;2022-09-13T03:36:10;3.80;;;3.50;;
17662;SDS011;8950;56.892;15.090;2022-09-13T03:38:38;5.32;;;3.72;;
17662;SDS011;8950;56.892;15.090;2022-09-13T03:41:08;3.60;;;3.30;;
17662;SDS011;8950;56.892;15.090;2022-09-13T03:43:36;4.85;;;3.88;;
17662;SDS011;8950;56.892;15.090;2022-09-13T03:46:04;3.40;;;3.20;;
17662;SDS011;8950;56.892;15.090;2022-09-13T03:48:33;4.18;;;3.85;;
17662;SDS011;8950;56.892;15.090;2022-09-13T03:51:00;3.83;;;3.53;;
17662;SDS011;8950;56.892;15.090;2022-09-13T03:53:27;3.63;;;3.30;;
17662;SDS011;8950;56.892;15.090;2022-09-13T03:55:54;3.70;;;3.38;;
17662;SDS011;8950;56.892;15.090;2022-09-13T03:58:24;3.83;;;3.50;;
17662;SDS011;8950;56.892;15.090;2022-09-13T04:00:50;4.05;;;3.67;;
17662;SDS011;8950;56.892;15.090;2022-09-13T04:03:18;3.75;;;3.45;;
17662;SDS011;8950;56.892;15.090;2022-09-13T04:05:45;4.10;;;3.70;;
17662;SDS011;8950;56.892;15.090;2022-09-13T04:08:11;3.90;;;3.53;;
17662;SDS011;8950;56.892;15.090;2022-09-13T04:10:38;4.32;;;3.95;;
17662;SDS011;8950;56.892;15.090;2022-09-13T04:13:04;3.95;;;3.60;;
17662;SDS011;8950;56.892;15.090;2022-09-13T04:15:32;3.90;;;3.47;;
17662;SDS011;8950;56.892;15.090;2022-09-13T04:17:59;5.40;;;3.72;;
17662;SDS011;8950;56.892;15.090;2022-09-13T04:20:25;4.38;;;3.97;;
17662;SDS011;8950;56.892;15.090;2022-09-13T04:22:52;4.68;;;3.60;;
17662;SDS011;8950;56.892;15.090;2022-09-13T04:25:19;3.65;;;3.35;;
17662;SDS011;8950;56.892;15.090;2022-09-13T04:27:46;4.07;;;3.65;;
17662;SDS011;8950;56.892;15.090;2022-09-13T04:30:12;4.28;;;3.88;;
17662;SDS011;8950;56.892;15.090;2022-09-13T04:32:42;4.13;;;3.80;;
17662;SDS011;8950;56.892;15.090;2022-09-13T04:35:09;3.95;;;3.63;;
17662;SDS011;8950;56.892;15.090;2022-09-13T04:37:36;4.80;;;4.20;;
17662;SDS011;8950;56.892;15.090;2022-09-13T04:40:02;4.95;;;3.88;;
17662;SDS011;8950;56.892;15.090;2022-09-13T04:42:29;4.00;;;3.70;;
17662;SDS011;8950;56.892;15.090;2022-09-13T04:44:55;4.60;;;4.03;;
17662;SDS011;8950;56.892;15.090;2022-09-13T04:47:21;4.97;;;4.57;;
17662;SDS011;8950;56.892;15.090;2022-09-13T04:49:49;4.90;;;3.92;;
17662;SDS011;8950;56.892;15.090;2022-09-13T04:52:16;3.75;;;3.45;;
17662;SDS011;8950;56.892;15.090;2022-09-13T04:54:42;4.30;;;4.00;;
17662;SDS011;8950;56.892;15.090;2022-09-13T04:57:09;4.45;;;4.05;;
17662;SDS011;8950;56.892;15.090;2022-09-13T04:59:36;4.65;;;4.22;;
17662;SDS011;8950;56.892;15.090;2022-09-13T05:02:02;5.10;;;4.40;;
17662;SDS011;8950;56.892;15.090;2022-09-13T05:04:29;5.13;;;4.47;;
17662;SDS011;8950;56.892;15.090;2022-09-13T05:06:56;4.60;;;4.20;;
17662;SDS011;8950;56.892;15.090;2022-09-13T05:09:23;4.45;;;4.15;;
17662;SDS011;8950;56.892;15.090;2022-09-13T05:11:50;4.15;;;3.75;;
17662;SDS011;8950;56.892;15.090;2022-09-13T05:14:16;4.95;;;4.45;;
17662;SDS011;8950;56.892;15.090;2022-09-13T05:16:43;4.50;;;4.10;;
17662;SDS011;8950;56.892;15.090;2022-09-13T05:19:10;4.13;;;3.67;;
17662;SDS011;8950;56.892;15.090;2022-09-13T05:21:37;3.75;;;3.45;;
17662;SDS011;8950;56.892;15.090;2022-09-13T05:24:05;4.35;;;4.00;;
17662;SDS011;8950;56.892;15.090;2022-09-13T05:26:31;3.92;;;3.53;;
17662;SDS011;8950;56.892;15.090;2022-09-13T05:28:57;3.97;;;3.67;;
17662;SDS011;8950;56.892;15.090;2022-09-13T05:31:24;4.38;;;3.97;;
17662;SDS011;8950;56.892;15.090;2022-09-13T05:33:52;4.38;;;4.07;;
17662;SDS011;8950;56.892;15.090;2022-09-13T05:36:19;4.25;;;3.85;;
17662;SDS011;8950;56.892;15.090;2022-09-13T05:38:45;4.50;;;4.10;;
17662;SDS011;8950;56.892;15.090;2022-09-13T05:41:13;4.25;;;3.85;;
17662;SDS011;8950;56.892;15.090;2022-09-13T05:43:40;4.90;;;4.40;;
17662;SDS011;8950;56.892;15.090;2022-09-13T05:46:06;4.53;;;4.13;;
17662;SDS011;8950;56.892;15.090;2022-09-13T05:48:34;4.55;;;4.15;;
17662;SDS011;8950;56.892;15.090;2022-09-13T05:51:04;4.72;;;3.80;;
17662;SDS011;8950;56.892;15.090;2022-09-13T05:53:31;4.28;;;3.95;;
17662;SDS011;8950;56.892;15.090;2022-09-13T05:55:57;4.10;;;3.80;;
17662;SDS011;8950;56.892;15.090;2022-09-13T05:58:25;4.15;;;3.80;;
17662;SDS011;8950;56.892;15.090;2022-09-13T06:00:52;4.30;;;3.90;;
17662;SDS011;8950;56.892;15.090;2022-09-13T06:03:18;4.57;;;4.18;;
17662;SDS011;8950;56.892;15.090;2022-09-13T06:05:45;4.35;;;4.05;;
17662;SDS011;8950;56.892;15.090;2022-09-13T06:08:11;4.47;;;4.07;;
17662;SDS011;8950;56.892;15.090;2022-09-13T06:10:38;4.25;;;3.95;;
17662;SDS011;8950;56.892;15.090;2022-09-13T06:13:04;4.38;;;4.00;;
17662;SDS011;8950;56.892;15.090;2022-09-13T06:15:32;5.07;;;4.25;;
17662;SDS011;8950;56.892;15.090;2022-09-13T06:17:58;4.25;;;3.80;;
17662;SDS011;8950;56.892;15.090;2022-09-13T06:20:25;4.28;;;3.88;;
17662;SDS011;8950;56.892;15.090;2022-09-13T06:22:51;4.75;;;3.95;;
17662;SDS011;8950;56.892;15.090;2022-09-13T06:25:17;4.75;;;4.20;;
17662;SDS011;8950;56.892;15.090;2022-09-13T06:27:44;4.47;;;4.00;;
17662;SDS011;8950;56.892;15.090;2022-09-13T06:30:10;4.95;;;4.55;;
17662;SDS011;8950;56.892;15.090;2022-09-13T06:32:38;4.20;;;3.80;;
17662;SDS011;8950;56.892;15.090;2022-09-13T06:35:05;4.35;;;3.95;;
17662;SDS011;8950;56.892;15.090;2022-09-13T06:37:32;4.85;;;4.38;;
17662;SDS011;8950;56.892;15.090;2022-09-13T06:39:58;4.85;;;4.35;;
17662;SDS011;8950;56.892;15.090;2022-09-13T06:42:24;4.70;;;4.20;;
17662;SDS011;8950;56.892;15.090;2022-09-13T06:44:51;4.47;;;4.15;;
17662;SDS011;8950;56.892;15.090;2022-09-13T06:47:17;4.57;;;4.18;;
17662;SDS011;8950;56.892;15.090;2022-09-13T06:49:45;4.72;;;4.30;;
17662;SDS011;8950;56.892;15.090;2022-09-13T06:52:11;4.38;;;4.00;;
17662;SDS011;8950;56.892;15.090;2022-09-13T06:54:38;4.40;;;4.00;;
17662;SDS011;8950;56.892;15.090;2022-09-13T06:57:04;3.90;;;3.60;;
17662;SDS011;8950;56.892;15.090;2022-09-13T06:59:31;4.25;;;3.70;;
17662;SDS011;8950;56.892;15.090;2022-09-13T07:01:59;3.95;;;3.55;;
17662;SDS011;8950;56.892;15.090;2022-09-13T07:04:25;3.95;;;3.55;;
17662;SDS011;8950;56.892;15.090;2022-09-13T07:06:57;4.05;;;3.75;;
17662;SDS011;8950;56.892;15.090;2022-09-13T07:09:24;4.55;;;4.07;;
17662;SDS011;8950;56.892;15.090;2022-09-13T07:11:51;4.15;;;3.85;;
17662;SDS011;8950;56.892;15.090;2022-09-13T07:14:18;4.07;;;3.67;;
17662;SDS011;8950;56.892;15.090;2022-09-13T07:16:45;4.20;;;3.90;;
17662;SDS011;8950;56.892;15.090;2022-09-13T07:19:12;4.10;;;3.78;;
17662;SDS011;8950;56.892;15.090;2022-09-13T07:21:39;4.35;;;3.97;;
17662;SDS011;8950;56.892;15.090;2022-09-13T07:24:07;4.10;;;3.80;;
17662;SDS011;8950;56.892;15.090;2022-09-13T07:26:33;3.95;;;3.65;;
17662;SDS011;8950;56.892;15.090;2022-09-13T07:29:01;3.88;;;3.58;;
17662;SDS011;8950;56.892;15.090;2022-09-13T07:31:28;4.10;;;3.80;;
17662;SDS011;8950;56.892;15.090;2022-09-13T07:33:55;3.70;;;3.40;;
17662;SDS011;8950;56.892;15.090;2022-09-13T07:36:22;3.47;;;3.28;;
17662;SDS011;8950;56.892;15.090;2022-09-13T07:38:49;3.80;;;3.50;;
17662;SDS011;8950;56.892;15.090;2022-09-13T07:41:17;3.78;;;3.33;;
17662;SDS011;8950;56.892;15.090;2022-09-13T07:43:44;3.55;;;3.35;;
17662;SDS011;8950;56.892;15.090;2022-09-13T07:46:11;3.55;;;3.25;;
17662;SDS011;8950;56.892;15.090;2022-09-13T07:48:38;3.20;;;3.00;;
17662;SDS011;8950;56.892;15.090;2022-09-13T07:51:05;3.17;;;2.97;;
17662;SDS011;8950;56.892;15.090;2022-09-13T07:53:32;3.35;;;3.08;;
17662;SDS011;8950;56.892;15.090;2022-09-13T07:56:00;3.53;;;3.33;;
17662;SDS011;8950;56.892;15.090;2022-09-13T07:58:28;3.30;;;2.97;;
17662;SDS011;8950;56.892;15.090;2022-09-13T08:00:55;3.83;;;3.53;;
17662;SDS011;8950;56.892;15.090;2022-09-13T08:03:22;2.90;;;2.70;;
17662;SDS011;8950;56.892;15.090;2022-09-13T08:05:49;2.65;;;2.47;;
17662;SDS011;8950;56.892;15.090;2022-09-13T08:08:15;2.95;;;2.75;;
17662;SDS011;8950;56.892;15.090;2022-09-13T08:10:44;2.97;;;2.70;;
17662;SDS011;8950;56.892;15.090;2022-09-13T08:13:10;3.08;;;2.88;;
17662;SDS011;8950;56.892;15.090;2022-09-13T08:15:38;3.00;;;2.70;;
17662;SDS011;8950;56.892;15.090;2022-09-13T08:18:04;3.05;;;2.70;;
17662;SDS011;8950;56.892;15.090;2022-09-13T08:20:32;2.70;;;2.50;;
17662;SDS011;8950;56.892;15.090;2022-09-13T08:23:00;2.47;;;2.25;;
17662;SDS011;8950;56.892;15.090;2022-09-13T08:25:26;2.50;;;2.30;;
17662;SDS011;8950;56.892;15.090;2022-09-13T08:27:53;2.80;;;2.53;;
17662;SDS011;8950;56.892;15.090;2022-09-13T08:30:19;2.78;;;2.53;;
17662;SDS011;8950;56.892;15.090;2022-09-13T08:32:49;2.67;;;2.47;;
17662;SDS011;8950;56.892;15.090;2022-09-13T08:35:17;2.70;;;2.50;;
17662;SDS011;8950;56.892;15.090;2022-09-13T08:37:43;2.50;;;2.40;;
17662;SDS011;8950;56.892;15.090;2022-09-13T08:40:10;3.08;;;2.78;;
17662;SDS011;8950;56.892;15.090;2022-09-13T08:42:45;2.90;;;2.70;;
17662;SDS011;8950;56.892;15.090;2022-09-13T08:45:15;2.70;;;2.50;;
17662;SDS011;8950;56.892;15.090;2022-09-13T08:47:42;2.75;;;2.45;;
17662;SDS011;8950;56.892;15.090;2022-09-13T08:50:11;2.90;;;2.70;;
17662;SDS011;8950;56.892;15.090;2022-09-13T08:52:43;2.72;;;2.53;;
17662;SDS011;8950;56.892;15.090;2022-09-13T08:55:17;2.80;;;2.60;;
17662;SDS011;8950;56.892;15.090;2022-09-13T08:57:46;2.85;;;2.65;;
17662;SDS011;8950;56.892;15.090;2022-09-13T09:00:17;3.00;;;2.80;;
17662;SDS011;8950;56.892;15.090;2022-09-13T09:02:47;2.67;;;2.47;;
17662;SDS011;8950;56.892;15.090;2022-09-13T09:05:18;2.80;;;2.60;;
17662;SDS011;8950;56.892;15.090;2022-09-13T09:07:46;2.80;;;2.60;;
17662;SDS011;8950;56.892;15.090;2022-09-13T09:10:16;2.88;;;2.72;;
17662;SDS011;8950;56.892;15.090;2022-09-13T09:12:45;2.97;;;2.67;;
17662;SDS011;8950;56.892;15.090;2022-09-13T09:15:13;3.13;;;2.80;;
17662;SDS011;8950;56.892;15.090;2022-09-13T09:17:43;2.95;;;2.75;;
17662;SDS011;8950;56.892;15.090;2022-09-13T09:20:15;2.92;;;2.72;;
17662;SDS011;8950;56.892;15.090;2022-09-13T09:22:46;3.00;;;2.75;;
17662;SDS011;8950;56.892;15.090;2022-09-13T09:25:14;3.10;;;2.90;;
17662;SDS011;8950;56.892;15.090;2022-09-13T09:27:40;2.70;;;2.50;;
17662;SDS011;8950;56.892;15.090;2022-09-13T09:30:11;2.65;;;2.47;;
17662;SDS011;8950;56.892;15.090;2022-09-13T09:32:52;5.07;;;2.58;;
17662;SDS011;8950;56.892;15.090;2022-09-13T09:35:28;2.63;;;2.17;;
17662;SDS011;8950;56.892;15.090;2022-09-13T09:40:43;2.30;;;2.10;;
17662;SDS011;8950;56.892;15.090;2022-09-13T09:43:11;2.30;;;1.98;;
17662;SDS011;8950;56.892;15.090;2022-09-13T09:45:40;2.33;;;1.88;;
17662;SDS011;8950;56.892;15.090;2022-09-13T09:48:11;2.30;;;1.88;;
17662;SDS011;8950;56.892;15.090;2022-09-13T09:50:43;2.55;;;2.30;;
17662;SDS011;8950;56.892;15.090;2022-09-13T09:53:11;2.40;;;2.20;;
17662;SDS011;8950;56.892;15.090;2022-09-13T09:55:39;3.35;;;2.00;;
17662;SDS011;8950;56.892;15.090;2022-09-13T09:58:09;2.85;;;2.25;;
17662;SDS011;8950;56.892;15.090;2022-09-13T10:00:39;4.30;;;2.10;;
17662;SDS011;8950;56.892;15.090;2022-09-13T10:03:16;2.38;;;2.08;;
17662;SDS011;8950;56.892;15.090;2022-09-13T10:05:43;2.72;;;2.10;;
17662;SDS011;8950;56.892;15.090;2022-09-13T10:08:20;2.95;;;2.20;;
17662;SDS011;8950;56.892;15.090;2022-09-13T10:10:51;3.63;;;2.20;;
17662;SDS011;8950;56.892;15.090;2022-09-13T10:13:20;3.78;;;2.28;;
17662;SDS011;8950;56.892;15.090;2022-09-13T10:15:53;3.30;;;1.80;;
17662;SDS011;8950;56.892;15.090;2022-09-13T10:18:22;2.40;;;2.10;;
17662;SDS011;8950;56.892;15.090;2022-09-13T10:21:00;3.20;;;1.90;;
17662;SDS011;8950;56.892;15.090;2022-09-13T10:23:26;2.97;;;1.92;;
17662;SDS011;8950;56.892;15.090;2022-09-13T10:26:03;4.22;;;1.92;;
17662;SDS011;8950;56.892;15.090;2022-09-13T10:28:34;3.00;;;1.85;;
17662;SDS011;8950;56.892;15.090;2022-09-13T10:31:01;2.10;;;1.70;;
17662;SDS011;8950;56.892;15.090;2022-09-13T10:33:29;4.70;;;1.73;;
17662;SDS011;8950;56.892;15.090;2022-09-13T10:35:57;3.22;;;1.70;;
17662;SDS011;8950;56.892;15.090;2022-09-13T10:38:25;4.10;;;1.80;;
17662;SDS011;8950;56.892;15.090;2022-09-13T10:40:53;4.65;;;1.88;;
17662;SDS011;8950;56.892;15.090;2022-09-13T10:43:20;3.33;;;1.85;;
17662;SDS011;8950;56.892;15.090;2022-09-13T10:45:49;3.95;;;1.63;;
17662;SDS011;8950;56.892;15.090;2022-09-13T10:48:17;3.92;;;1.58;;
17662;SDS011;8950;56.892;15.090;2022-09-13T10:50:59;2.53;;;1.67;;
17662;SDS011;8950;56.892;15.090;2022-09-13T10:53:29;3.53;;;1.50;;
17662;SDS011;8950;56.892;15.090;2022-09-13T10:55:56;3.03;;;1.45;;
17662;SDS011;8950;56.892;15.090;2022-09-13T10:58:23;3.42;;;1.40;;
17662;SDS011;8950;56.892;15.090;2022-09-13T11:03:48;2.78;;;1.30;;
17662;SDS011;8950;56.892;15.090;2022-09-13T11:06:17;2.63;;;1.38;;
17662;SDS011;8950;56.892;15.090;2022-09-13T11:08:50;3.22;;;1.67;;
17662;SDS011;8950;56.892;15.090;2022-09-13T11:11:21;3.28;;;1.60;;
17662;SDS011;8950;56.892;15.090;2022-09-13T11:13:52;2.53;;;1.23;;
17662;SDS011;8950;56.892;15.090;2022-09-13T11:16:25;3.45;;;1.83;;
17662;SDS011;8950;56.892;15.090;2022-09-13T11:19:00;2.25;;;1.40;;
17662;SDS011;8950;56.892;15.090;2022-09-13T11:21:35;2.25;;;1.63;;
17662;SDS011;8950;56.892;15.090;2022-09-13T11:24:11;2.67;;;1.23;;
17662;SDS011;8950;56.892;15.090;2022-09-13T11:26:47;1.80;;;1.35;;
17662;SDS011;8950;56.892;15.090;2022-09-13T11:29:22;2.67;;;1.40;;
17662;SDS011;8950;56.892;15.090;2022-09-13T11:31:54;2.90;;;1.50;;
17662;SDS011;8950;56.892;15.090;2022-09-13T11:34:27;3.47;;;1.40;;
17662;SDS011;8950;56.892;15.090;2022-09-13T11:37:00;3.85;;;1.90;;
17662;SDS011;8950;56.892;15.090;2022-09-13T11:39:31;2.33;;;1.38;;
17662;SDS011;8950;56.892;15.090;2022-09-13T11:42:01;3.30;;;1.58;;
17662;SDS011;8950;56.892;15.090;2022-09-13T11:44:31;3.90;;;1.50;;
17662;SDS011;8950;56.892;15.090;2022-09-13T11:47:03;3.15;;;1.50;;
17662;SDS011;8950;56.892;15.090;2022-09-13T11:49:39;2.25;;;1.55;;
17662;SDS011;8950;56.892;15.090;2022-09-13T11:52:11;1.30;;;1.17;;
17662;SDS011;8950;56.892;15.090;2022-09-13T11:54:49;3.78;;;1.77;;
17662;SDS011;8950;56.892;15.090;2022-09-13T11:57:18;3.10;;;1.58;;
17662;SDS011;8950;56.892;15.090;2022-09-13T11:59:48;3.50;;;1.50;;
17662;SDS011;8950;56.892;15.090;2022-09-13T12:02:17;4.43;;;1.40;;
17662;SDS011;8950;56.892;15.090;2022-09-13T12:04:49;3.80;;;1.73;;
17662;SDS011;8950;56.892;15.090;2022-09-13T12:07:18;2.08;;;1.63;;
17662;SDS011;8950;56.892;15.090;2022-09-13T12:09:50;3.70;;;1.60;;
17662;SDS011;8950;56.892;15.090;2022-09-13T12:12:18;3.85;;;1.60;;
17662;SDS011;8950;56.892;15.090;2022-09-13T12:14:48;3.78;;;1.70;;
17662;SDS011;8950;56.892;15.090;2022-09-13T12:17:28;2.50;;;1.42;;
17662;SDS011;8950;56.892;15.090;2022-09-13T12:20:02;2.88;;;1.52;;
17662;SDS011;8950;56.892;15.090;2022-09-13T12:22:31;1.92;;;1.23;;
17662;SDS011;8950;56.892;15.090;2022-09-13T12:25:00;2.15;;;1.48;;
17662;SDS011;8950;56.892;15.090;2022-09-13T12:27:30;3.88;;;1.85;;
17662;SDS011;8950;56.892;15.090;2022-09-13T12:30:03;4.63;;;2.05;;
17662;SDS011;8950;56.892;15.090;2022-09-13T12:32:30;3.00;;;1.70;;
17662;SDS011;8950;56.892;15.090;2022-09-13T12:34:57;6.28;;;3.35;;
17662;SDS011;8950;56.892;15.090;2022-09-13T12:37:31;8.20;;;4.57;;
17662;SDS011;8950;56.892;15.090;2022-09-13T12:40:11;8.23;;;5.20;;
17662;SDS011;8950;56.892;15.090;2022-09-13T12:45:36;7.22;;;2.78;;
17662;SDS011;8950;56.892;15.090;2022-09-13T12:48:14;3.15;;;2.22;;
17662;SDS011;8950;56.892;15.090;2022-09-13T12:50:47;15.65;;;6.60;;
17662;SDS011;8950;56.892;15.090;2022-09-13T12:53:20;3.20;;;1.58;;
17662;SDS011;8950;56.892;15.090;2022-09-13T12:55:58;4.00;;;2.30;;
17662;SDS011;8950;56.892;15.090;2022-09-13T12:58:32;4.97;;;2.03;;
17662;SDS011;8950;56.892;15.090;2022-09-13T13:01:07;6.22;;;3.22;;
17662;SDS011;8950;56.892;15.090;2022-09-13T13:03:35;6.28;;;3.15;;
17662;SDS011;8950;56.892;15.090;2022-09-13T13:06:09;6.50;;;2.55;;
17662;SDS011;8950;56.892;15.090;2022-09-13T13:08:49;11.43;;;4.70;;
17662;SDS011;8950;56.892;15.090;2022-09-13T13:11:16;4.90;;;2.60;;
17662;SDS011;8950;56.892;15.090;2022-09-13T13:13:51;4.85;;;1.50;;
17662;SDS011;8950;56.892;15.090;2022-09-13T13:16:21;4.70;;;2.15;;
17662;SDS011;8950;56.892;15.090;2022-09-13T13:18:48;4.38;;;2.38;;
17662;SDS011;8950;56.892;15.090;2022-09-13T13:26:44;2.53;;;1.48;;
17662;SDS011;8950;56.892;15.090;2022-09-13T13:29:13;2.50;;;1.60;;
17662;SDS011;8950;56.892;15.090;2022-09-13T13:31:44;7.35;;;3.40;;
17662;SDS011;8950;56.892;15.090;2022-09-13T13:36:53;5.38;;;3.35;;
17662;SDS011;8950;56.892;15.090;2022-09-13T13:39:31;4.22;;;1.95;;
17662;SDS011;8950;56.892;15.090;2022-09-13T13:42:00;3.08;;;1.92;;
17662;SDS011;8950;56.892;15.090;2022-09-13T13:50:03;5.63;;;2.75;;
17662;SDS011;8950;56.892;15.090;2022-09-13T13:52:35;4.05;;;2.20;;
17662;SDS011;8950;56.892;15.090;2022-09-13T13:55:02;7.25;;;3.28;;
17662;SDS011;8950;56.892;15.090;2022-09-13T13:57:30;4.10;;;1.40;;
17662;SDS011;8950;56.892;15.090;2022-09-13T14:00:04;4.70;;;2.72;;
17662;SDS011;8950;56.892;15.090;2022-09-13T14:02:33;6.13;;;3.05;;
17662;SDS011;8950;56.892;15.090;2022-09-13T14:05:06;3.70;;;1.50;;
17662;SDS011;8950;56.892;15.090;2022-09-13T14:10:19;3.55;;;1.60;;
17662;SDS011;8950;56.892;15.090;2022-09-13T14:12:55;5.13;;;3.03;;
17662;SDS011;8950;56.892;15.090;2022-09-13T14:15:27;4.53;;;3.20;;
17662;SDS011;8950;56.892;15.090;2022-09-13T14:18:15;3.97;;;2.50;;
17662;SDS011;8950;56.892;15.090;2022-09-13T14:20:57;4.00;;;1.85;;
17662;SDS011;8950;56.892;15.090;2022-09-13T14:23:23;5.72;;;3.58;;
17662;SDS011;8950;56.892;15.090;2022-09-13T14:25:52;7.22;;;2.70;;
17662;SDS011;8950;56.892;15.090;2022-09-13T14:28:20;6.93;;;3.03;;
17662;SDS011;8950;56.892;15.090;2022-09-13T14:30:47;7.78;;;4.25;;
17662;SDS011;8950;56.892;15.090;2022-09-13T14:33:20;2.28;;;1.45;;
17662;SDS011;8950;56.892;15.090;2022-09-13T14:35:54;5.93;;;2.25;;
17662;SDS011;8950;56.892;15.090;2022-09-13T14:38:22;3.75;;;2.95;;
17662;SDS011;8950;56.892;15.090;2022-09-13T14:40:50;2.83;;;1.95;;
17662;SDS011;8950;56.892;15.090;2022-09-13T14:43:18;8.18;;;3.33;;
17662;SDS011;8950;56.892;15.090;2022-09-13T14:45:47;2.28;;;1.52;;
17662;SDS011;8950;56.892;15.090;2022-09-13T14:48:16;5.18;;;1.80;;
17662;SDS011;8950;56.892;15.090;2022-09-13T14:50:46;4.50;;;2.35;;
17662;SDS011;8950;56.892;15.090;2022-09-13T14:53:14;3.95;;;1.60;;
17662;SDS011;8950;56.892;15.090;2022-09-13T14:55:42;4.95;;;1.63;;
17662;SDS011;8950;56.892;15.090;2022-09-13T14:58:12;3.72;;;1.60;;
17662;SDS011;8950;56.892;15.090;2022-09-13T15:00:44;5.75;;;2.65;;
17662;SDS011;8950;56.892;15.090;2022-09-13T15:03:13;4.68;;;2.15;;
17662;SDS011;8950;56.892;15.090;2022-09-13T15:05:41;2.42;;;1.70;;
17662;SDS011;8950;56.892;15.090;2022-09-13T15:08:32;3.63;;;2.10;;
17662;SDS011;8950;56.892;15.090;2022-09-13T15:11:05;4.78;;;1.75;;
17662;SDS011;8950;56.892;15.090;2022-09-13T15:13:32;4.47;;;2.60;;
17662;SDS011;8950;56.892;15.090;2022-09-13T15:16:01;4.70;;;1.63;;
17662;SDS011;8950;56.892;15.090;2022-09-13T15:18:30;4.35;;;2.42;;
17662;SDS011;8950;56.892;15.090;2022-09-13T15:20:57;6.45;;;2.58;;
17662;SDS011;8950;56.892;15.090;2022-09-13T15:23:26;4.30;;;1.70;;
17662;SDS011;8950;56.892;15.090;2022-09-13T15:25:54;5.25;;;1.60;;
17662;SDS011;8950;56.892;15.090;2022-09-13T15:28:22;4.45;;;1.83;;